FMEE/RUN METAR and TAF weather

Enter ICAO airport designator
Station Type Date Time Source
FMEE METAR 2019/04/26 04:00 UTC NOAA

FMEE 260400Z AUTO 11013KT CAVOK 26/20 Q1016 NOSIG


Station Type Date Time Source
FMEE Decoded METAR 2019/04/26 04:00 UTC NOAA

Saint-Denis / Gillot, Reunion (FMEE) 20-53S 055-31E 25M
Apr 26, 2019 - 12:00 AM EDT / 2019.04.26 0400 UTC
Wind: from the ESE (110 degrees) at 15 MPH (13 KT):0
Visibility: greater than 7 mile(s):0
Temperature: 78 F (26 C)
Dew Point: 68 F (20 C)
Relative Humidity: 69%
Pressure (altimeter): 30.00 in. Hg (1016 hPa)
ob: FMEE 260400Z AUTO 11013KT CAVOK 26/20 Q1016 NOSIG
cycle: 4

Station Type Date Time Source
FMEE TAF 2019/04/25 18:06 UTC NOAA

TAF FMEE 251700Z 2518/2624 14015KT 9999 FEW035 SCT060
TEMPO 2606/2614 12020G30KT

Example: see airport list